Time,TemperatureF,DewpointF,PressureIn,WindDirection,WindDirectionDegrees,WindSpeedMPH,WindSpeedGustMPH,Humidity,HourlyPrecipIn,Conditions,Clouds,dailyrainin,SoftwareType,DateUTC
2013-05-11 00:04:00,64.2,63.0,29.99,SW,224,0.0,4.0,96,0.00,,,0.00,Wunderground v.1.15,2013-05-11 05:04:00,
2013-05-11 00:10:00,64.3,63.1,29.99,SW,226,0.0,0.0,96,0.00,,,0.00,Wunderground v.1.15,2013-05-11 05:10:00,
2013-05-11 00:15:00,64.2,63.0,30.00,SW,224,0.0,0.0,96,0.00,,,0.00,Wunderground v.1.15,2013-05-11 05:15:00,
2013-05-11 00:21:00,64.1,62.9,30.00,SW,224,0.0,0.0,96,0.00,,,0.00,Wunderground v.1.15,2013-05-11 05:21:00,
2013-05-11 00:27:00,64.0,62.8,29.99,SW,224,0.0,0.0,96,0.00,,,0.00,Wunderground v.1.15,2013-05-11 05:27:00,
2013-05-11 00:32:00,64.0,62.8,30.00,SW,224,0.0,0.0,96,0.00,,,0.00,Wunderground v.1.15,2013-05-11 05:32:00,
2013-05-11 00:37:00,63.8,62.6,29.99,SW,224,0.0,0.0,96,0.00,,,0.00,Wunderground v.1.15,2013-05-11 05:37:00,
2013-05-11 00:43:00,63.7,62.5,29.99,SW,225,0.0,0.0,96,0.00,,,0.00,Wunderground v.1.15,2013-05-11 05:43:00,
2013-05-11 00:49:00,63.6,62.4,29.99,SW,224,0.0,0.0,96,0.00,,,0.00,Wunderground v.1.15,2013-05-11 05:49:00,
2013-05-11 00:54:00,63.6,62.4,29.99,SW,224,0.0,0.0,96,0.00,,,0.00,Wunderground v.1.15,2013-05-11 05:54:00,
2013-05-11 00:59:00,63.5,62.3,29.99,SW,224,0.0,0.0,96,0.00,,,0.00,Wunderground v.1.15,2013-05-11 05:59:00,
2013-05-11 01:05:00,63.6,62.4,29.99,SW,225,0.0,0.0,96,0.00,,,0.00,Wunderground v.1.15,2013-05-11 06:05:00,
2013-05-11 01:10:00,63.5,62.3,29.99,SW,225,0.0,0.0,96,0.00,,,0.00,Wunderground v.1.15,2013-05-11 06:10:00,
2013-05-11 01:15:00,63.3,62.1,29.98,SW,224,0.0,0.0,96,0.00,,,0.00,Wunderground v.1.15,2013-05-11 06:15:00,
2013-05-11 01:21:00,63.2,62.0,29.98,SW,224,0.0,0.0,96,0.00,,,0.00,Wunderground v.1.15,2013-05-11 06:21:00,
2013-05-11 01:26:00,63.1,61.9,29.98,SW,226,0.0,0.0,96,0.00,,,0.00,Wunderground v.1.15,2013-05-11 06:26:00,
2013-05-11 01:31:00,63.1,61.9,29.98,SW,225,0.0,0.0,96,0.00,,,0.00,Wunderground v.1.15,2013-05-11 06:31:00,
2013-05-11 01:36:00,63.1,61.9,29.97,SW,225,0.0,0.0,96,0.00,,,0.00,Wunderground v.1.15,2013-05-11 06:36:00,
2013-05-11 01:42:00,63.0,61.8,29.98,SW,225,0.0,0.0,96,0.00,,,0.00,Wunderground v.1.15,2013-05-11 06:42:00,
2013-05-11 01:47:00,63.1,62.2,29.99,SW,225,0.0,0.0,97,0.00,,,0.00,Wunderground v.1.15,2013-05-11 06:47:00,
2013-05-11 01:52:00,63.1,62.2,30.00,SW,224,0.0,0.0,97,0.00,,,0.00,Wunderground v.1.15,2013-05-11 06:52:00,
2013-05-11 01:57:00,63.2,62.3,30.00,SW,224,0.0,0.0,97,0.00,,,0.00,Wunderground v.1.15,2013-05-11 06:57:00,
2013-05-11 02:03:00,63.2,62.3,30.00,SW,225,0.0,0.0,97,0.00,,,0.00,Wunderground v.1.15,2013-05-11 07:03:00,
2013-05-11 02:08:00,63.3,62.4,30.00,SW,224,0.0,0.0,97,0.00,,,0.00,Wunderground v.1.15,2013-05-11 07:08:00,
2013-05-11 02:13:00,63.3,62.4,30.00,SW,224,0.0,0.0,97,0.00,,,0.00,Wunderground v.1.15,2013-05-11 07:13:00,
2013-05-11 02:19:00,63.4,62.5,29.99,SW,224,0.0,0.0,97,0.00,,,0.00,Wunderground v.1.15,2013-05-11 07:19:00,
2013-05-11 02:24:00,63.4,62.5,29.98,SW,224,0.0,0.0,97,0.00,,,0.00,Wunderground v.1.15,2013-05-11 07:24:00,
2013-05-11 02:29:00,63.5,62.6,29.98,SW,224,0.0,0.0,97,0.00,,,0.00,Wunderground v.1.15,2013-05-11 07:29:00,
2013-05-11 02:35:00,63.6,62.7,29.98,South,191,0.0,0.0,97,0.00,,,0.00,Wunderground v.1.15,2013-05-11 07:35:00,
2013-05-11 02:41:00,63.6,62.7,29.98,SE,136,0.0,1.0,97,0.00,,,0.00,Wunderground v.1.15,2013-05-11 07:41:00,
2013-05-11 02:46:00,63.7,62.8,29.99,SE,135,0.0,0.0,97,0.00,,,0.00,Wunderground v.1.15,2013-05-11 07:46:00,
2013-05-11 02:51:00,63.7,62.8,29.98,SE,135,0.0,0.0,97,0.00,,,0.00,Wunderground v.1.15,2013-05-11 07:51:00,
2013-05-11 02:56:00,63.7,62.8,29.98,SE,135,0.0,0.0,97,0.00,,,0.00,Wunderground v.1.15,2013-05-11 07:56:00,
2013-05-11 03:01:00,63.7,62.8,29.99,SE,135,0.0,0.0,97,0.00,,,0.00,Wunderground v.1.15,2013-05-11 08:01:00,
2013-05-11 03:07:00,63.9,63.0,29.99,SE,141,0.0,0.0,97,0.00,,,0.00,Wunderground v.1.15,2013-05-11 08:07:00,
2013-05-11 03:12:00,63.9,63.0,29.99,SE,141,0.0,0.0,97,0.00,,,0.00,Wunderground v.1.15,2013-05-11 08:12:00,
2013-05-11 03:17:00,64.0,63.1,30.00,WNW,290,0.0,0.0,97,0.00,,,0.00,Wunderground v.1.15,2013-05-11 08:17:00,
2013-05-11 03:22:00,64.1,63.2,30.00,WNW,290,0.0,0.0,97,0.00,,,0.00,Wunderground v.1.15,2013-05-11 08:22:00,
2013-05-11 03:28:00,64.3,63.4,30.00,WNW,289,0.0,0.0,97,0.00,,,0.00,Wunderground v.1.15,2013-05-11 08:28:00,
2013-05-11 03:33:00,64.4,63.5,30.00,WNW,290,0.0,0.0,97,0.00,,,0.00,Wunderground v.1.15,2013-05-11 08:33:00,
2013-05-11 03:38:00,64.5,63.6,29.99,SE,138,0.0,0.0,97,0.00,,,0.00,Wunderground v.1.15,2013-05-11 08:38:00,
2013-05-11 03:43:00,64.6,63.7,29.98,SSE,150,1.0,2.0,97,0.00,,,0.00,Wunderground v.1.15,2013-05-11 08:43:00,
2013-05-11 03:49:00,64.7,63.8,29.97,ESE,113,2.0,2.0,97,0.00,,,0.00,Wunderground v.1.15,2013-05-11 08:49:00,
2013-05-11 03:54:00,64.7,63.8,29.96,ENE,60,2.0,4.0,97,0.00,,,0.00,Wunderground v.1.15,2013-05-11 08:54:00,
2013-05-11 03:59:00,64.7,63.8,29.95,ENE,61,2.0,2.0,97,0.00,,,0.01,Wunderground v.1.15,2013-05-11 08:59:00,
2013-05-11 04:04:00,64.6,63.7,29.94,ENE,63,1.0,2.0,97,0.00,,,0.01,Wunderground v.1.15,2013-05-11 09:04:00,
2013-05-11 04:10:00,64.5,63.6,29.94,ENE,63,0.0,0.0,97,0.00,,,0.01,Wunderground v.1.15,2013-05-11 09:10:00,
2013-05-11 04:15:00,64.5,63.6,29.94,ESE,122,0.0,2.0,97,0.00,,,0.01,Wunderground v.1.15,2013-05-11 09:15:00,
2013-05-11 04:21:00,64.5,63.6,29.94,ESE,113,1.0,1.0,97,0.00,,,0.01,Wunderground v.1.15,2013-05-11 09:21:00,
2013-05-11 04:26:00,64.5,63.6,29.93,East,89,0.0,0.0,97,0.00,,,0.01,Wunderground v.1.15,2013-05-11 09:26:00,
2013-05-11 04:31:00,64.5,63.6,29.93,ESE,115,0.0,1.0,97,0.00,,,0.01,Wunderground v.1.15,2013-05-11 09:31:00,
2013-05-11 04:36:00,64.4,63.5,29.94,SSE,150,1.0,1.0,97,0.00,,,0.01,Wunderground v.1.15,2013-05-11 09:36:00,
2013-05-11 04:41:00,64.5,63.6,29.93,SSE,148,1.0,1.0,97,0.00,,,0.01,Wunderground v.1.15,2013-05-11 09:41:00,
2013-05-11 04:47:00,64.4,63.5,29.93,SSE,156,1.0,1.0,97,0.00,,,0.01,Wunderground v.1.15,2013-05-11 09:47:00,
2013-05-11 04:52:00,64.4,63.5,29.93,SSE,149,1.0,3.0,97,0.00,,,0.01,Wunderground v.1.15,2013-05-11 09:52:00,
2013-05-11 04:57:00,64.4,63.5,29.93,SSE,149,1.0,1.0,97,0.00,,,0.01,Wunderground v.1.15,2013-05-11 09:57:00,
2013-05-11 05:03:00,64.4,63.5,29.94,SSE,148,1.0,1.0,97,0.00,,,0.01,Wunderground v.1.15,2013-05-11 10:03:00,
2013-05-11 05:09:00,64.4,63.5,29.94,SW,214,1.0,1.0,97,0.00,,,0.01,Wunderground v.1.15,2013-05-11 10:09:00,
2013-05-11 05:14:00,64.4,63.5,29.93,SW,218,0.0,1.0,97,0.00,,,0.01,Wunderground v.1.15,2013-05-11 10:14:00,
2013-05-11 05:19:00,64.3,63.4,29.93,SW,218,0.0,0.0,97,0.00,,,0.01,Wunderground v.1.15,2013-05-11 10:19:00,
2013-05-11 05:25:00,64.2,63.3,29.93,SW,218,0.0,0.0,97,0.00,,,0.01,Wunderground v.1.15,2013-05-11 10:25:00,
2013-05-11 05:30:00,64.2,63.3,29.94,SW,218,0.0,1.0,97,0.00,,,0.01,Wunderground v.1.15,2013-05-11 10:30:00,
2013-05-11 05:35:00,64.2,63.3,29.93,SW,217,1.0,1.0,97,0.00,,,0.01,Wunderground v.1.15,2013-05-11 10:35:00,
2013-05-11 05:41:00,64.2,63.3,29.95,WSW,239,1.0,1.0,97,0.00,,,0.01,Wunderground v.1.15,2013-05-11 10:41:00,
2013-05-11 05:46:00,64.2,63.3,29.95,SW,221,1.0,2.0,97,0.00,,,0.01,Wunderground v.1.15,2013-05-11 10:46:00,
2013-05-11 05:51:00,64.2,63.3,29.95,West,269,1.0,4.0,97,0.00,,,0.01,Wunderground v.1.15,2013-05-11 10:51:00,
2013-05-11 05:56:00,64.2,63.3,29.96,SW,225,1.0,2.0,97,0.00,,,0.01,Wunderground v.1.15,2013-05-11 10:56:00,
2013-05-11 06:02:00,64.2,63.3,29.96,SW,229,2.0,2.0,97,0.00,,,0.01,Wunderground v.1.15,2013-05-11 11:02:00,
2013-05-11 06:07:00,64.1,63.2,29.96,SW,225,1.0,1.0,97,0.00,,,0.01,Wunderground v.1.15,2013-05-11 11:07:00,
2013-05-11 06:12:00,64.0,63.1,29.95,SW,221,1.0,1.0,97,0.00,,,0.01,Wunderground v.1.15,2013-05-11 11:12:00,
2013-05-11 06:17:00,64.0,63.1,29.95,WSW,239,0.0,0.0,97,0.00,,,0.01,Wunderground v.1.15,2013-05-11 11:17:00,
2013-05-11 06:23:00,63.8,62.9,29.96,WSW,240,0.0,0.0,97,0.00,,,0.01,Wunderground v.1.15,2013-05-11 11:23:00,
2013-05-11 06:28:00,63.7,62.8,29.96,WNW,293,0.0,2.0,97,0.00,,,0.01,Wunderground v.1.15,2013-05-11 11:28:00,
2013-05-11 06:34:00,63.8,62.9,29.97,WNW,294,1.0,3.0,97,0.00,,,0.01,Wunderground v.1.15,2013-05-11 11:34:00,
2013-05-11 06:40:00,63.9,63.0,29.98,WNW,289,2.0,2.0,97,0.00,,,0.01,Wunderground v.1.15,2013-05-11 11:40:00,
2013-05-11 06:46:00,63.9,63.0,29.98,WNW,291,1.0,1.0,97,0.00,,,0.01,Wunderground v.1.15,2013-05-11 11:46:00,
2013-05-11 06:51:00,63.9,63.0,29.99,WNW,288,1.0,1.0,97,0.00,,,0.01,Wunderground v.1.15,2013-05-11 11:51:00,
2013-05-11 06:56:00,63.9,63.0,29.99,WSW,243,0.0,0.0,97,0.00,,,0.01,Wunderground v.1.15,2013-05-11 11:56:00,
2013-05-11 07:01:00,63.9,63.0,29.98,WSW,243,0.0,0.0,97,0.00,,,0.01,Wunderground v.1.15,2013-05-11 12:01:00,
2013-05-11 07:07:00,64.2,63.3,29.99,SSW,211,0.0,0.0,97,0.00,,,0.01,Wunderground v.1.15,2013-05-11 12:07:00,
2013-05-11 07:12:00,64.3,63.4,29.99,SSW,204,0.0,0.0,97,0.00,,,0.01,Wunderground v.1.15,2013-05-11 12:12:00,
2013-05-11 07:18:00,64.6,63.7,29.99,SE,144,0.0,2.0,97,0.00,,,0.01,Wunderground v.1.15,2013-05-11 12:18:00,
2013-05-11 07:23:00,64.7,63.8,29.99,SE,142,1.0,2.0,97,0.00,,,0.01,Wunderground v.1.15,2013-05-11 12:23:00,
2013-05-11 07:28:00,64.9,64.0,29.99,ESE,114,1.0,1.0,97,0.00,,,0.01,Wunderground v.1.15,2013-05-11 12:28:00,
2013-05-11 07:33:00,65.1,64.2,30.00,ESE,114,0.0,1.0,97,0.00,,,0.01,Wunderground v.1.15,2013-05-11 12:33:00,
2013-05-11 07:39:00,65.3,64.4,30.00,NNE,12,0.0,1.0,97,0.00,,,0.01,Wunderground v.1.15,2013-05-11 12:39:00,
2013-05-11 07:44:00,65.4,64.5,30.01,NW,308,0.0,1.0,97,0.00,,,0.01,Wunderground v.1.15,2013-05-11 12:44:00,
2013-05-11 07:49:00,65.5,64.6,30.01,NW,319,1.0,1.0,97,0.00,,,0.01,Wunderground v.1.15,2013-05-11 12:49:00,
2013-05-11 07:54:00,65.7,64.8,30.01,WNW,299,1.0,1.0,97,0.00,,,0.01,Wunderground v.1.15,2013-05-11 12:54:00,
2013-05-11 08:00:00,65.8,64.9,30.01,WNW,297,1.0,5.0,97,0.00,,,0.01,Wunderground v.1.15,2013-05-11 13:00:00,
2013-05-11 08:05:00,65.8,64.6,30.01,WNW,293,2.0,5.0,96,0.00,,,0.01,Wunderground v.1.15,2013-05-11 13:05:00,
2013-05-11 08:11:00,65.8,64.6,30.01,WNW,293,2.0,2.0,96,0.00,,,0.01,Wunderground v.1.15,2013-05-11 13:11:00,
2013-05-11 08:16:00,66.0,64.8,30.01,West,260,1.0,2.0,96,0.00,,,0.01,Wunderground v.1.15,2013-05-11 13:16:00,
2013-05-11 08:21:00,66.3,65.1,30.01,WNW,287,1.0,3.0,96,0.00,,,0.01,Wunderground v.1.15,2013-05-11 13:21:00,
2013-05-11 08:26:00,66.6,65.4,30.01,WSW,250,2.0,2.0,96,0.00,,,0.01,Wunderground v.1.15,2013-05-11 13:26:00,
2013-05-11 08:32:00,67.0,65.5,30.01,WNW,287,1.0,2.0,95,0.00,,,0.01,Wunderground v.1.15,2013-05-11 13:32:00,
2013-05-11 08:37:00,67.5,66.0,30.01,North,6,1.0,1.0,95,0.00,,,0.01,Wunderground v.1.15,2013-05-11 13:37:00,
2013-05-11 08:42:00,68.1,66.6,30.01,North,352,1.0,1.0,95,0.00,,,0.01,Wunderground v.1.15,2013-05-11 13:42:00,
2013-05-11 08:47:00,69.0,67.2,30.01,WNW,300,0.0,1.0,94,0.00,,,0.01,Wunderground v.1.15,2013-05-11 13:47:00,
2013-05-11 08:53:00,69.8,67.4,30.02,NE,56,1.0,1.0,92,0.00,,,0.01,Wunderground v.1.15,2013-05-11 13:53:00,
2013-05-11 08:58:00,71.0,67.9,30.02,SSW,211,0.0,1.0,90,0.00,,,0.01,Wunderground v.1.15,2013-05-11 13:58:00,
2013-05-11 09:03:00,71.7,67.6,30.02,NW,308,0.0,1.0,87,0.00,,,0.01,Wunderground v.1.15,2013-05-11 14:03:00,
2013-05-11 09:08:00,72.2,68.1,30.02,West,263,1.0,2.0,87,0.00,,,0.01,Wunderground v.1.15,2013-05-11 14:08:00,
2013-05-11 09:14:00,71.9,67.1,30.01,NE,37,1.0,2.0,85,0.00,,,0.01,Wunderground v.1.15,2013-05-11 14:14:00,
2013-05-11 09:19:00,72.5,67.4,30.01,NW,309,1.0,1.0,84,0.00,,,0.01,Wunderground v.1.15,2013-05-11 14:19:00,
2013-05-11 09:24:00,73.2,67.4,30.01,SW,224,0.0,1.0,82,0.00,,,0.01,Wunderground v.1.15,2013-05-11 14:24:00,
2013-05-11 09:29:00,73.5,67.7,30.01,SE,141,1.0,1.0,82,0.00,,,0.01,Wunderground v.1.15,2013-05-11 14:29:00,
2013-05-11 09:34:00,73.5,67.7,30.01,SE,144,1.0,2.0,82,0.00,,,0.01,Wunderground v.1.15,2013-05-11 14:34:00,
2013-05-11 09:40:00,73.5,67.3,30.01,ENE,70,1.0,3.0,81,0.00,,,0.01,Wunderground v.1.15,2013-05-11 14:40:00,
2013-05-11 09:46:00,74.2,68.0,30.01,WNW,293,1.0,1.0,81,0.00,,,0.01,Wunderground v.1.15,2013-05-11 14:46:00,
2013-05-11 09:51:00,75.1,68.1,30.01,WNW,284,1.0,2.0,79,0.00,,,0.01,Wunderground v.1.15,2013-05-11 14:51:00,
2013-05-11 09:56:00,75.7,68.4,30.01,South,169,1.0,1.0,78,0.00,,,0.01,Wunderground v.1.15,2013-05-11 14:56:00,
2013-05-11 10:01:00,76.4,68.3,30.01,WNW,294,1.0,2.0,76,0.00,,,0.01,Wunderground v.1.15,2013-05-11 15:01:00,
2013-05-11 10:06:00,77.1,67.8,30.00,NNE,18,1.0,2.0,73,0.00,,,0.01,Wunderground v.1.15,2013-05-11 15:06:00,
2013-05-11 10:12:00,77.4,67.7,30.00,ENE,70,1.0,4.0,72,0.00,,,0.01,Wunderground v.1.15,2013-05-11 15:12:00,
2013-05-11 10:17:00,77.5,67.8,30.00,West,280,1.0,1.0,72,0.00,,,0.01,Wunderground v.1.15,2013-05-11 15:17:00,
2013-05-11 10:22:00,76.7,67.4,30.00,NNW,339,2.0,2.0,73,0.00,,,0.01,Wunderground v.1.15,2013-05-11 15:22:00,
2013-05-11 10:27:00,76.6,66.9,30.00,WNW,291,1.0,4.0,72,0.00,,,0.01,Wunderground v.1.15,2013-05-11 15:27:00,
2013-05-11 10:33:00,75.5,67.0,30.00,West,280,2.0,4.0,75,0.00,,,0.01,Wunderground v.1.15,2013-05-11 15:33:00,
2013-05-11 10:38:00,75.3,66.8,30.00,WNW,299,2.0,2.0,75,0.00,,,0.01,Wunderground v.1.15,2013-05-11 15:38:00,
2013-05-11 10:43:00,74.7,66.2,30.00,NW,304,2.0,4.0,75,0.00,,,0.01,Wunderground v.1.15,2013-05-11 15:43:00,
2013-05-11 10:48:00,74.5,66.8,30.00,ENE,65,2.0,2.0,77,0.00,,,0.01,Wunderground v.1.15,2013-05-11 15:48:00,
2013-05-11 10:54:00,74.6,66.5,30.01,WNW,286,1.0,5.0,76,0.00,,,0.01,Wunderground v.1.15,2013-05-11 15:54:00,
2013-05-11 10:59:00,74.4,66.7,30.01,ESE,122,2.0,3.0,77,0.00,,,0.01,Wunderground v.1.15,2013-05-11 15:59:00,
2013-05-11 11:04:00,74.3,66.6,30.01,ENE,68,2.0,4.0,77,0.00,,,0.01,Wunderground v.1.15,2013-05-11 16:04:00,
2013-05-11 11:09:00,74.6,67.3,30.00,NE,40,1.0,2.0,78,0.00,,,0.01,Wunderground v.1.15,2013-05-11 16:09:00,
2013-05-11 11:15:00,75.1,67.8,30.00,NW,314,1.0,2.0,78,0.00,,,0.01,Wunderground v.1.15,2013-05-11 16:15:00,
2013-05-11 11:20:00,75.4,67.7,30.00,NW,309,1.0,3.0,77,0.00,,,0.01,Wunderground v.1.15,2013-05-11 16:20:00,
2013-05-11 11:26:00,75.7,67.2,30.00,NW,311,1.0,2.0,75,0.00,,,0.01,Wunderground v.1.15,2013-05-11 16:26:00,
2013-05-11 11:31:00,75.9,67.8,30.00,West,277,2.0,5.0,76,0.00,,,0.01,Wunderground v.1.15,2013-05-11 16:31:00,
2013-05-11 11:36:00,76.6,68.5,30.00,West,281,2.0,2.0,76,0.00,,,0.01,Wunderground v.1.15,2013-05-11 16:36:00,
2013-05-11 11:41:00,77.1,68.2,30.00,NE,49,1.0,2.0,74,0.00,,,0.01,Wunderground v.1.15,2013-05-11 16:41:00,
2013-05-11 11:46:00,77.0,67.7,30.00,WNW,288,2.0,4.0,73,0.00,,,0.01,Wunderground v.1.15,2013-05-11 16:46:00,
2013-05-11 11:52:00,76.8,68.7,30.01,WNW,283,2.0,4.0,76,0.00,,,0.01,Wunderground v.1.15,2013-05-11 16:52:00,
2013-05-11 11:57:00,76.9,68.0,30.02,WNW,284,2.0,2.0,74,0.00,,,0.01,Wunderground v.1.15,2013-05-11 16:57:00,
2013-05-11 12:03:00,76.9,68.4,30.02,WNW,293,2.0,3.0,75,0.00,,,0.01,Wunderground v.1.15,2013-05-11 17:03:00,
2013-05-11 12:08:00,77.5,68.2,30.02,WNW,291,1.0,2.0,73,0.00,,,0.01,Wunderground v.1.15,2013-05-11 17:08:00,
2013-05-11 12:13:00,77.9,68.5,30.02,NNE,18,1.0,2.0,73,0.00,,,0.01,Wunderground v.1.15,2013-05-11 17:13:00,
2013-05-11 12:18:00,78.3,68.9,30.03,East,95,1.0,1.0,73,0.00,,,0.01,Wunderground v.1.15,2013-05-11 17:18:00,
2013-05-11 12:24:00,77.6,67.9,30.03,NNW,335,1.0,4.0,72,0.00,,,0.01,Wunderground v.1.15,2013-05-11 17:24:00,
2013-05-11 12:29:00,77.6,67.4,30.03,SE,139,2.0,3.0,71,0.00,,,0.01,Wunderground v.1.15,2013-05-11 17:29:00,
2013-05-11 12:34:00,77.8,68.0,30.03,South,186,2.0,3.0,72,0.00,,,0.01,Wunderground v.1.15,2013-05-11 17:34:00,
2013-05-11 12:39:00,77.7,67.1,30.03,WNW,284,1.0,4.0,70,0.00,,,0.01,Wunderground v.1.15,2013-05-11 17:39:00,
2013-05-11 12:45:00,78.0,68.2,30.03,WNW,300,2.0,4.0,72,0.00,,,0.01,Wunderground v.1.15,2013-05-11 17:45:00,
2013-05-11 12:50:00,78.6,68.4,30.03,NW,321,1.0,3.0,71,0.00,,,0.01,Wunderground v.1.15,2013-05-11 17:50:00,
2013-05-11 12:56:00,79.2,69.0,30.03,NNE,12,1.0,1.0,71,0.00,,,0.01,Wunderground v.1.15,2013-05-11 17:56:00,
2013-05-11 13:01:00,79.0,68.0,30.03,WNW,293,2.0,4.0,69,0.00,,,0.01,Wunderground v.1.15,2013-05-11 18:01:00,
2013-05-11 13:06:00,78.6,67.2,30.03,NW,318,2.0,4.0,68,0.00,,,0.01,Wunderground v.1.15,2013-05-11 18:06:00,
2013-05-11 13:11:00,78.5,67.9,30.03,East,81,2.0,4.0,70,0.00,,,0.01,Wunderground v.1.15,2013-05-11 18:11:00,
2013-05-11 13:17:00,78.7,68.1,30.03,ENE,77,2.0,4.0,70,0.00,,,0.01,Wunderground v.1.15,2013-05-11 18:17:00,
2013-05-11 13:22:00,79.2,66.9,30.03,NNW,345,1.0,4.0,66,0.00,,,0.01,Wunderground v.1.15,2013-05-11 18:22:00,
2013-05-11 13:27:00,79.5,67.6,30.03,WSW,257,1.0,4.0,67,0.00,,,0.01,Wunderground v.1.15,2013-05-11 18:27:00,
2013-05-11 13:32:00,79.3,67.0,30.03,SSW,210,2.0,4.0,66,0.00,,,0.01,Wunderground v.1.15,2013-05-11 18:32:00,
2013-05-11 13:38:00,79.9,68.0,30.02,SSW,207,2.0,4.0,67,0.00,,,0.01,Wunderground v.1.15,2013-05-11 18:38:00,
2013-05-11 13:43:00,80.6,66.8,30.02,NE,47,2.0,4.0,63,0.00,,,0.01,Wunderground v.1.15,2013-05-11 18:43:00,
2013-05-11 13:48:00,79.6,67.2,30.02,WNW,302,2.0,4.0,66,0.00,,,0.01,Wunderground v.1.15,2013-05-11 18:48:00,
2013-05-11 13:54:00,79.9,68.0,30.02,NW,307,2.0,4.0,67,0.00,,,0.01,Wunderground v.1.15,2013-05-11 18:54:00,
2013-05-11 14:00:00,79.9,67.5,30.02,WSW,241,1.0,4.0,66,0.00,,,0.01,Wunderground v.1.15,2013-05-11 19:00:00,
2013-05-11 14:05:00,80.2,67.4,30.02,SSW,204,2.0,4.0,65,0.00,,,0.01,Wunderground v.1.15,2013-05-11 19:05:00,
2013-05-11 14:11:00,80.4,66.6,30.02,NNE,32,2.0,4.0,63,0.00,,,0.01,Wunderground v.1.15,2013-05-11 19:11:00,
2013-05-11 14:16:00,80.7,67.4,30.02,NNW,348,2.0,2.0,64,0.00,,,0.01,Wunderground v.1.15,2013-05-11 19:16:00,
2013-05-11 14:21:00,80.6,67.3,30.02,North,11,1.0,4.0,64,0.00,,,0.01,Wunderground v.1.15,2013-05-11 19:21:00,
2013-05-11 14:26:00,80.5,67.6,30.02,NNE,20,1.0,4.0,65,0.00,,,0.01,Wunderground v.1.15,2013-05-11 19:26:00,
2013-05-11 14:32:00,80.7,65.5,30.01,NE,43,1.0,4.0,60,0.00,,,0.01,Wunderground v.1.15,2013-05-11 19:32:00,
2013-05-11 14:37:00,81.2,65.0,30.01,SE,129,1.0,4.0,58,0.00,,,0.01,Wunderground v.1.15,2013-05-11 19:37:00,
2013-05-11 14:42:00,82.2,67.4,30.01,WSW,250,1.0,4.0,61,0.00,,,0.01,Wunderground v.1.15,2013-05-11 19:42:00,
2013-05-11 14:47:00,82.4,66.6,30.01,West,266,1.0,4.0,59,0.00,,,0.01,Wunderground v.1.15,2013-05-11 19:47:00,
2013-05-11 14:53:00,82.9,66.6,30.00,NNW,340,2.0,4.0,58,0.00,,,0.01,Wunderground v.1.15,2013-05-11 19:53:00,
2013-05-11 14:58:00,83.2,67.9,30.00,NW,308,1.0,4.0,60,0.00,,,0.01,Wunderground v.1.15,2013-05-11 19:58:00,
2013-05-11 15:04:00,83.1,67.3,30.00,NNW,330,1.0,4.0,59,0.00,,,0.01,Wunderground v.1.15,2013-05-11 20:04:00,
2013-05-11 15:09:00,82.2,64.9,30.00,WNW,300,2.0,4.0,56,0.00,,,0.01,Wunderground v.1.15,2013-05-11 20:09:00,
2013-05-11 15:14:00,81.9,66.2,29.99,WNW,298,2.0,4.0,59,0.00,,,0.01,Wunderground v.1.15,2013-05-11 20:14:00,
2013-05-11 15:20:00,82.3,67.5,29.99,NNE,22,2.0,4.0,61,0.00,,,0.01,Wunderground v.1.15,2013-05-11 20:20:00,
2013-05-11 15:26:00,81.7,66.5,29.99,WNW,301,2.0,4.0,60,0.00,,,0.01,Wunderground v.1.15,2013-05-11 20:26:00,
2013-05-11 15:31:00,80.2,66.9,29.99,SW,219,3.0,5.0,64,0.00,,,0.01,Wunderground v.1.15,2013-05-11 20:31:00,
2013-05-11 15:36:00,79.0,68.0,29.99,WNW,295,3.0,4.0,69,0.00,,,0.01,Wunderground v.1.15,2013-05-11 20:36:00,
2013-05-11 15:41:00,79.0,68.8,29.99,NNE,23,3.0,4.0,71,0.00,,,0.01,Wunderground v.1.15,2013-05-11 20:41:00,
2013-05-11 15:47:00,79.1,68.1,29.99,NE,39,3.0,6.0,69,0.00,,,0.01,Wunderground v.1.15,2013-05-11 20:47:00,
2013-05-11 15:52:00,79.4,67.9,29.99,ENE,64,4.0,6.0,68,0.00,,,0.01,Wunderground v.1.15,2013-05-11 20:52:00,
2013-05-11 15:57:00,79.8,67.0,29.99,ESE,103,2.0,4.0,65,0.00,,,0.01,Wunderground v.1.15,2013-05-11 20:57:00,
2013-05-11 16:02:00,79.9,68.0,29.98,NE,40,2.0,4.0,67,0.00,,,0.01,Wunderground v.1.15,2013-05-11 21:02:00,
2013-05-11 16:08:00,79.7,67.8,29.99,North,358,3.0,4.0,67,0.00,,,0.01,Wunderground v.1.15,2013-05-11 21:08:00,
2013-05-11 16:13:00,79.6,68.1,29.98,North,9,3.0,8.0,68,0.00,,,0.01,Wunderground v.1.15,2013-05-11 21:13:00,
2013-05-11 16:18:00,78.9,67.9,29.98,WSW,250,3.0,4.0,69,0.00,,,0.01,Wunderground v.1.15,2013-05-11 21:18:00,
2013-05-11 16:24:00,79.2,67.3,29.99,ENE,58,2.0,8.0,67,0.00,,,0.01,Wunderground v.1.15,2013-05-11 21:24:00,
2013-05-11 16:30:00,79.2,67.3,29.99,NW,321,3.0,4.0,67,0.00,,,0.01,Wunderground v.1.15,2013-05-11 21:30:00,
2013-05-11 16:35:00,78.9,67.9,29.99,NNE,29,2.0,5.0,69,0.00,,,0.01,Wunderground v.1.15,2013-05-11 21:35:00,
2013-05-11 16:41:00,78.8,68.2,29.99,ENE,77,3.0,7.0,70,0.00,,,0.01,Wunderground v.1.15,2013-05-11 21:41:00,
2013-05-11 16:46:00,78.8,67.8,29.99,WSW,252,3.0,3.0,69,0.00,,,0.01,Wunderground v.1.15,2013-05-11 21:46:00,
2013-05-11 16:51:00,78.4,66.1,29.99,ENE,58,4.0,6.0,66,0.00,,,0.01,Wunderground v.1.15,2013-05-11 21:51:00,
2013-05-11 16:56:00,78.3,66.9,29.99,WNW,284,3.0,4.0,68,0.00,,,0.01,Wunderground v.1.15,2013-05-11 21:56:00,
2013-05-11 17:02:00,78.2,66.3,29.98,NE,56,3.0,6.0,67,0.00,,,0.01,Wunderground v.1.15,2013-05-11 22:02:00,
2013-05-11 17:07:00,78.8,67.8,29.98,East,88,3.0,4.0,69,0.00,,,0.01,Wunderground v.1.15,2013-05-11 22:07:00,
2013-05-11 17:12:00,79.1,68.5,29.98,ENE,70,3.0,9.0,70,0.00,,,0.01,Wunderground v.1.15,2013-05-11 22:12:00,
2013-05-11 17:17:00,78.9,67.9,29.98,ENE,67,4.0,4.0,69,0.00,,,0.01,Wunderground v.1.15,2013-05-11 22:17:00,
2013-05-11 17:23:00,78.7,68.1,29.98,ENE,64,4.0,5.0,70,0.00,,,0.01,Wunderground v.1.15,2013-05-11 22:23:00,
2013-05-11 17:28:00,78.5,68.7,29.98,ESE,105,5.0,9.0,72,0.00,,,0.01,Wunderground v.1.15,2013-05-11 22:28:00,
2013-05-11 17:33:00,78.4,68.6,29.98,East,87,5.0,9.0,72,0.00,,,0.01,Wunderground v.1.15,2013-05-11 22:33:00,
2013-05-11 17:38:00,78.4,69.0,29.98,NE,51,4.0,5.0,73,0.00,,,0.01,Wunderground v.1.15,2013-05-11 22:38:00,
2013-05-11 17:43:00,78.4,68.2,29.98,WNW,302,2.0,7.0,71,0.00,,,0.01,Wunderground v.1.15,2013-05-11 22:43:00,
2013-05-11 17:49:00,78.1,64.5,29.99,WNW,293,2.0,5.0,63,0.00,,,0.01,Wunderground v.1.15,2013-05-11 22:49:00,
2013-05-11 17:54:00,78.1,64.9,29.99,East,98,2.0,5.0,64,0.00,,,0.01,Wunderground v.1.15,2013-05-11 22:54:00,
2013-05-11 17:59:00,78.1,64.5,29.99,NNE,15,2.0,5.0,63,0.00,,,0.01,Wunderground v.1.15,2013-05-11 22:59:00,
2013-05-11 18:05:00,78.3,65.1,29.99,NE,34,2.0,5.0,64,0.00,,,0.01,Wunderground v.1.15,2013-05-11 23:05:00,
2013-05-11 18:10:00,78.4,63.8,29.99,NW,320,2.0,4.0,61,0.00,,,0.01,Wunderground v.1.15,2013-05-11 23:10:00,
2013-05-11 18:16:00,78.2,64.1,29.99,WNW,295,2.0,2.0,62,0.00,,,0.01,Wunderground v.1.15,2013-05-11 23:16:00,
2013-05-11 18:21:00,78.2,64.1,29.99,North,352,1.0,4.0,62,0.00,,,0.01,Wunderground v.1.15,2013-05-11 23:21:00,
2013-05-11 18:26:00,78.1,63.6,29.99,West,259,1.0,4.0,61,0.00,,,0.01,Wunderground v.1.15,2013-05-11 23:26:00,
2013-05-11 18:31:00,78.2,63.6,29.99,NW,309,1.0,4.0,61,0.00,,,0.01,Wunderground v.1.15,2013-05-11 23:31:00,
2013-05-11 18:37:00,78.1,64.0,29.99,NW,311,2.0,4.0,62,0.00,,,0.01,Wunderground v.1.15,2013-05-11 23:37:00,
2013-05-11 18:42:00,78.1,64.0,29.99,NNW,344,2.0,4.0,62,0.00,,,0.01,Wunderground v.1.15,2013-05-11 23:42:00,
2013-05-11 18:47:00,78.0,64.4,29.99,NNW,333,2.0,4.0,63,0.00,,,0.01,Wunderground v.1.15,2013-05-11 23:47:00,
2013-05-11 18:52:00,77.8,63.7,29.99,NW,312,2.0,5.0,62,0.00,,,0.01,Wunderground v.1.15,2013-05-11 23:52:00,
2013-05-11 18:58:00,77.8,63.3,29.99,North,359,2.0,4.0,61,0.00,,,0.01,Wunderground v.1.15,2013-05-11 23:58:00,
2013-05-11 19:03:00,77.5,63.5,29.99,WNW,301,2.0,4.0,62,0.00,,,0.01,Wunderground v.1.15,2013-05-12 00:03:00,
2013-05-11 19:08:00,77.2,63.6,29.99,WNW,294,2.0,4.0,63,0.00,,,0.01,Wunderground v.1.15,2013-05-12 00:08:00,
2013-05-11 19:13:00,77.1,63.5,30.00,West,267,2.0,4.0,63,0.00,,,0.01,Wunderground v.1.15,2013-05-12 00:13:00,
2013-05-11 19:19:00,77.0,63.9,30.00,WNW,293,2.0,4.0,64,0.00,,,0.01,Wunderground v.1.15,2013-05-12 00:19:00,
2013-05-11 19:24:00,77.1,64.0,30.00,West,271,1.0,4.0,64,0.00,,,0.01,Wunderground v.1.15,2013-05-12 00:24:00,
2013-05-11 19:29:00,76.7,63.6,30.00,NNE,27,1.0,5.0,64,0.00,,,0.01,Wunderground v.1.15,2013-05-12 00:29:00,
2013-05-11 19:35:00,76.1,63.9,30.01,NNW,345,1.0,5.0,66,0.00,,,0.01,Wunderground v.1.15,2013-05-12 00:35:00,
2013-05-11 19:40:00,75.7,63.5,30.01,WNW,293,1.0,4.0,66,0.00,,,0.01,Wunderground v.1.15,2013-05-12 00:40:00,
2013-05-11 19:46:00,75.4,63.2,30.01,North,8,2.0,2.0,66,0.00,,,0.01,Wunderground v.1.15,2013-05-12 00:46:00,
2013-05-11 19:51:00,75.1,63.8,30.01,WNW,302,1.0,4.0,68,0.00,,,0.01,Wunderground v.1.15,2013-05-12 00:51:00,
2013-05-11 19:56:00,74.7,63.4,30.02,North,5,0.0,4.0,68,0.00,,,0.01,Wunderground v.1.15,2013-05-12 00:56:00,
2013-05-11 20:01:00,74.4,64.0,30.02,North,8,0.0,4.0,70,0.00,,,0.01,Wunderground v.1.15,2013-05-12 01:01:00,
2013-05-11 20:07:00,73.8,63.4,30.02,ENE,75,0.0,4.0,70,0.00,,,0.01,Wunderground v.1.15,2013-05-12 01:07:00,
2013-05-11 20:12:00,73.5,63.5,30.02,NE,51,0.0,4.0,71,0.00,,,0.01,Wunderground v.1.15,2013-05-12 01:12:00,
2013-05-11 20:17:00,73.2,63.2,30.02,NNE,20,1.0,4.0,71,0.00,,,0.01,Wunderground v.1.15,2013-05-12 01:17:00,
2013-05-11 20:22:00,73.0,63.0,30.02,ENE,77,0.0,4.0,71,0.00,,,0.01,Wunderground v.1.15,2013-05-12 01:22:00,
2013-05-11 20:27:00,72.9,63.3,30.02,WNW,295,0.0,4.0,72,0.00,,,0.01,Wunderground v.1.15,2013-05-12 01:27:00,
2013-05-11 20:33:00,72.7,63.1,30.03,WNW,290,0.0,4.0,72,0.00,,,0.01,Wunderground v.1.15,2013-05-12 01:33:00,
2013-05-11 20:38:00,72.4,63.3,30.03,NE,44,0.0,4.0,73,0.00,,,0.01,Wunderground v.1.15,2013-05-12 01:38:00,
2013-05-11 20:43:00,72.1,63.4,30.03,NW,323,0.0,4.0,74,0.00,,,0.01,Wunderground v.1.15,2013-05-12 01:43:00,
2013-05-11 20:48:00,71.7,63.4,30.03,NW,324,0.0,4.0,75,0.00,,,0.01,Wunderground v.1.15,2013-05-12 01:48:00,
2013-05-11 20:54:00,71.6,63.3,30.04,North,358,0.0,4.0,75,0.00,,,0.01,Wunderground v.1.15,2013-05-12 01:54:00,
2013-05-11 20:59:00,71.4,63.1,30.04,NW,318,1.0,4.0,75,0.00,,,0.01,Wunderground v.1.15,2013-05-12 01:59:00,
2013-05-11 21:04:00,71.3,63.3,30.04,East,85,0.0,4.0,76,0.00,,,0.01,Wunderground v.1.15,2013-05-12 02:04:00,
2013-05-11 21:10:00,71.1,63.1,30.04,West,260,0.0,4.0,76,0.00,,,0.01,Wunderground v.1.15,2013-05-12 02:10:00,
2013-05-11 21:15:00,70.9,63.0,30.04,NE,51,0.0,4.0,76,0.00,,,0.01,Wunderground v.1.15,2013-05-12 02:15:00,
2013-05-11 21:21:00,70.6,63.0,30.04,NNW,341,0.0,4.0,77,0.00,,,0.01,Wunderground v.1.15,2013-05-12 02:21:00,
2013-05-11 21:27:00,70.5,62.9,30.05,South,190,0.0,4.0,77,0.00,,,0.01,Wunderground v.1.15,2013-05-12 02:27:00,
2013-05-11 21:32:00,70.3,63.1,30.05,ENE,77,0.0,4.0,78,0.00,,,0.01,Wunderground v.1.15,2013-05-12 02:32:00,
2013-05-11 21:37:00,70.1,63.3,30.05,ENE,65,0.0,4.0,79,0.00,,,0.01,Wunderground v.1.15,2013-05-12 02:37:00,
2013-05-11 21:43:00,69.9,63.1,30.06,ENE,65,0.0,4.0,79,0.00,,,0.01,Wunderground v.1.15,2013-05-12 02:43:00,
2013-05-11 21:48:00,69.5,63.1,30.06,ENE,65,0.0,4.0,80,0.00,,,0.01,Wunderground v.1.15,2013-05-12 02:48:00,
2013-05-11 21:53:00,69.2,63.1,30.06,WNW,283,0.0,4.0,81,0.00,,,0.01,Wunderground v.1.15,2013-05-12 02:53:00,
2013-05-11 21:58:00,69.0,62.9,30.06,WNW,283,0.0,4.0,81,0.00,,,0.01,Wunderground v.1.15,2013-05-12 02:58:00,
2013-05-11 22:04:00,68.8,62.7,30.06,WNW,283,0.0,4.0,81,0.00,,,0.01,Wunderground v.1.15,2013-05-12 03:04:00,
2013-05-11 22:09:00,68.6,62.9,30.06,West,281,0.0,4.0,82,0.00,,,0.01,Wunderground v.1.15,2013-05-12 03:09:00,
2013-05-11 22:14:00,68.5,62.8,30.07,West,281,0.0,4.0,82,0.00,,,0.01,Wunderground v.1.15,2013-05-12 03:14:00,
2013-05-11 22:19:00,68.4,62.7,30.07,NW,306,0.0,4.0,82,0.00,,,0.01,Wunderground v.1.15,2013-05-12 03:19:00,
2013-05-11 22:25:00,68.3,62.6,30.07,NNW,337,0.0,4.0,82,0.00,,,0.01,Wunderground v.1.15,2013-05-12 03:25:00,
2013-05-11 22:30:00,68.0,62.6,30.07,NNW,338,0.0,4.0,83,0.00,,,0.01,Wunderground v.1.15,2013-05-12 03:30:00,
2013-05-11 22:36:00,67.9,62.5,30.07,WNW,300,0.0,4.0,83,0.00,,,0.01,Wunderground v.1.15,2013-05-12 03:36:00,
2013-05-11 22:42:00,67.7,62.3,30.07,WNW,285,0.0,4.0,83,0.00,,,0.01,Wunderground v.1.15,2013-05-12 03:42:00,
2013-05-11 22:47:00,67.5,62.5,30.07,WNW,285,0.0,4.0,84,0.00,,,0.01,Wunderground v.1.15,2013-05-12 03:47:00,
2013-05-11 22:53:00,67.3,62.3,30.07,WNW,285,0.0,4.0,84,0.00,,,0.01,Wunderground v.1.15,2013-05-12 03:53:00,
2013-05-11 22:58:00,67.1,62.1,30.07,WNW,285,0.0,4.0,84,0.00,,,0.01,Wunderground v.1.15,2013-05-12 03:58:00,
2013-05-11 23:01:00,67.0,62.3,30.08,WNW,285,0.0,4.0,85,0.00,,,0.01,Wunderground v.1.15,2013-05-12 04:01:00,
2013-05-11 23:02:00,66.9,62.2,30.08,WNW,285,0.0,4.0,85,0.00,,,0.01,Wunderground v.1.15,2013-05-12 04:02:00,
2013-05-11 23:04:00,66.9,62.2,30.08,WNW,285,0.0,4.0,85,0.00,,,0.01,Wunderground v.1.15,2013-05-12 04:04:00,
2013-05-11 23:05:00,66.8,62.1,30.08,WNW,285,0.0,4.0,85,0.00,,,0.01,Wunderground v.1.15,2013-05-12 04:05:00,
2013-05-11 23:07:00,66.8,62.1,30.08,WNW,285,0.0,4.0,85,0.00,,,0.01,Wunderground v.1.15,2013-05-12 04:07:00,
2013-05-11 23:12:00,66.7,62.0,30.08,WNW,285,0.0,4.0,85,0.00,,,0.01,Wunderground v.1.15,2013-05-12 04:12:00,
2013-05-11 23:18:00,66.6,61.9,30.08,WNW,287,0.0,4.0,85,0.00,,,0.01,Wunderground v.1.15,2013-05-12 04:18:00,
2013-05-11 23:23:00,66.5,62.2,30.08,WNW,287,0.0,4.0,86,0.00,,,0.01,Wunderground v.1.15,2013-05-12 04:23:00,
2013-05-11 23:28:00,66.4,62.1,30.09,WNW,285,0.0,4.0,86,0.00,,,0.01,Wunderground v.1.15,2013-05-12 04:28:00,
2013-05-11 23:33:00,66.2,61.9,30.09,NNE,14,0.0,4.0,86,0.00,,,0.01,Wunderground v.1.15,2013-05-12 04:33:00,
2013-05-11 23:39:00,66.0,61.7,30.09,NNE,15,0.0,4.0,86,0.00,,,0.01,Wunderground v.1.15,2013-05-12 04:39:00,
2013-05-11 23:44:00,65.8,61.8,30.09,NNE,15,0.0,4.0,87,0.00,,,0.01,Wunderground v.1.15,2013-05-12 04:44:00,
2013-05-11 23:49:00,65.6,61.6,30.09,NNE,15,0.0,4.0,87,0.00,,,0.01,Wunderground v.1.15,2013-05-12 04:49:00,
2013-05-11 23:54:00,65.4,61.4,30.09,NNE,14,0.0,4.0,87,0.00,,,0.01,Wunderground v.1.15,2013-05-12 04:54:00,